sensor_id;sensor_type;location;lat;lon;timestamp;P1;durP1;ratioP1;P2;durP2;ratioP2
64335;SDS011;50672;53.362;-6.240;2022-11-03T00:01:40;3.17;;;0.97;;
64335;SDS011;50672;53.362;-6.240;2022-11-03T00:04:12;1.50;;;0.70;;
64335;SDS011;50672;53.362;-6.240;2022-11-03T00:06:40;2.73;;;0.90;;
64335;SDS011;50672;53.362;-6.240;2022-11-03T00:09:09;1.87;;;0.53;;
64335;SDS011;50672;53.362;-6.240;2022-11-03T00:11:37;5.83;;;0.90;;
64335;SDS011;50672;53.362;-6.240;2022-11-03T00:14:05;3.33;;;0.80;;
64335;SDS011;50672;53.362;-6.240;2022-11-03T00:16:32;4.27;;;0.70;;
64335;SDS011;50672;53.362;-6.240;2022-11-03T00:18:59;4.53;;;0.80;;
64335;SDS011;50672;53.362;-6.240;2022-11-03T00:21:26;4.17;;;1.00;;
64335;SDS011;50672;53.362;-6.240;2022-11-03T00:23:54;3.47;;;1.10;;
64335;SDS011;50672;53.362;-6.240;2022-11-03T00:26:21;7.70;;;3.13;;
64335;SDS011;50672;53.362;-6.240;2022-11-03T00:28:50;6.10;;;2.60;;
64335;SDS011;50672;53.362;-6.240;2022-11-03T00:31:20;4.83;;;1.80;;
64335;SDS011;50672;53.362;-6.240;2022-11-03T00:33:49;5.47;;;1.43;;
64335;SDS011;50672;53.362;-6.240;2022-11-03T00:36:18;3.03;;;0.90;;
64335;SDS011;50672;53.362;-6.240;2022-11-03T00:38:46;3.97;;;0.90;;
64335;SDS011;50672;53.362;-6.240;2022-11-03T00:41:14;3.80;;;0.90;;
64335;SDS011;50672;53.362;-6.240;2022-11-03T00:43:41;5.10;;;2.00;;
64335;SDS011;50672;53.362;-6.240;2022-11-03T00:46:08;4.70;;;1.33;;
64335;SDS011;50672;53.362;-6.240;2022-11-03T00:48:36;3.97;;;0.80;;
64335;SDS011;50672;53.362;-6.240;2022-11-03T00:53:54;3.40;;;0.80;;
64335;SDS011;50672;53.362;-6.240;2022-11-03T00:56:26;5.53;;;1.33;;
64335;SDS011;50672;53.362;-6.240;2022-11-03T00:58:56;2.30;;;0.80;;
64335;SDS011;50672;53.362;-6.240;2022-11-03T01:01:24;3.20;;;0.80;;
64335;SDS011;50672;53.362;-6.240;2022-11-03T01:04:10;3.17;;;0.77;;
64335;SDS011;50672;53.362;-6.240;2022-11-03T01:06:56;5.37;;;1.07;;
64335;SDS011;50672;53.362;-6.240;2022-11-03T01:17:13;4.80;;;0.70;;
64335;SDS011;50672;53.362;-6.240;2022-11-03T01:19:43;5.33;;;1.40;;
64335;SDS011;50672;53.362;-6.240;2022-11-03T01:22:09;3.87;;;1.20;;
64335;SDS011;50672;53.362;-6.240;2022-11-03T01:24:38;4.33;;;0.93;;
64335;SDS011;50672;53.362;-6.240;2022-11-03T01:27:09;2.17;;;0.67;;
64335;SDS011;50672;53.362;-6.240;2022-11-03T01:29:41;7.60;;;1.07;;
64335;SDS011;50672;53.362;-6.240;2022-11-03T01:32:08;3.80;;;0.90;;
64335;SDS011;50672;53.362;-6.240;2022-11-03T01:34:35;2.60;;;0.83;;
64335;SDS011;50672;53.362;-6.240;2022-11-03T01:37:02;4.17;;;1.57;;
64335;SDS011;50672;53.362;-6.240;2022-11-03T01:39:29;3.93;;;1.47;;
64335;SDS011;50672;53.362;-6.240;2022-11-03T01:41:56;3.63;;;1.23;;
64335;SDS011;50672;53.362;-6.240;2022-11-03T01:44:28;3.17;;;0.80;;
64335;SDS011;50672;53.362;-6.240;2022-11-03T01:47:08;4.73;;;1.97;;
64335;SDS011;50672;53.362;-6.240;2022-11-03T01:49:42;18.03;;;7.87;;
64335;SDS011;50672;53.362;-6.240;2022-11-03T01:52:27;5.25;;;1.95;;
64335;SDS011;50672;53.362;-6.240;2022-11-03T01:54:59;6.07;;;1.77;;
64335;SDS011;50672;53.362;-6.240;2022-11-03T01:57:33;8.00;;;2.83;;
64335;SDS011;50672;53.362;-6.240;2022-11-03T02:00:05;5.57;;;2.07;;
64335;SDS011;50672;53.362;-6.240;2022-11-03T02:02:32;4.77;;;1.50;;
64335;SDS011;50672;53.362;-6.240;2022-11-03T02:04:59;7.07;;;1.87;;
64335;SDS011;50672;53.362;-6.240;2022-11-03T02:07:32;4.87;;;1.67;;
64335;SDS011;50672;53.362;-6.240;2022-11-03T02:10:04;6.13;;;0.80;;
64335;SDS011;50672;53.362;-6.240;2022-11-03T02:12:31;3.80;;;1.40;;
64335;SDS011;50672;53.362;-6.240;2022-11-03T02:15:04;4.07;;;0.97;;
64335;SDS011;50672;53.362;-6.240;2022-11-03T02:17:34;4.63;;;1.50;;
64335;SDS011;50672;53.362;-6.240;2022-11-03T02:20:04;5.43;;;1.77;;
64335;SDS011;50672;53.362;-6.240;2022-11-03T02:25:51;3.13;;;0.90;;
64335;SDS011;50672;53.362;-6.240;2022-11-03T02:28:21;6.63;;;1.43;;
64335;SDS011;50672;53.362;-6.240;2022-11-03T02:30:59;5.47;;;0.80;;
64335;SDS011;50672;53.362;-6.240;2022-11-03T02:34:14;5.73;;;1.43;;
64335;SDS011;50672;53.362;-6.240;2022-11-03T02:37:00;5.43;;;1.17;;
64335;SDS011;50672;53.362;-6.240;2022-11-03T02:39:29;4.30;;;1.33;;
64335;SDS011;50672;53.362;-6.240;2022-11-03T02:42:02;5.07;;;1.07;;
64335;SDS011;50672;53.362;-6.240;2022-11-03T02:44:31;7.77;;;1.63;;
64335;SDS011;50672;53.362;-6.240;2022-11-03T02:47:00;5.87;;;1.10;;
64335;SDS011;50672;53.362;-6.240;2022-11-03T02:49:36;5.23;;;0.80;;
64335;SDS011;50672;53.362;-6.240;2022-11-03T02:52:05;4.95;;;1.10;;
64335;SDS011;50672;53.362;-6.240;2022-11-03T02:54:52;4.17;;;0.90;;
64335;SDS011;50672;53.362;-6.240;2022-11-03T02:57:21;4.03;;;1.00;;
64335;SDS011;50672;53.362;-6.240;2022-11-03T02:59:56;3.80;;;1.33;;
64335;SDS011;50672;53.362;-6.240;2022-11-03T03:02:40;6.87;;;1.00;;
64335;SDS011;50672;53.362;-6.240;2022-11-03T03:05:21;7.00;;;1.33;;
64335;SDS011;50672;53.362;-6.240;2022-11-03T03:07:52;9.03;;;1.33;;
64335;SDS011;50672;53.362;-6.240;2022-11-03T03:10:28;7.43;;;1.30;;
64335;SDS011;50672;53.362;-6.240;2022-11-03T03:15:35;4.23;;;1.10;;
64335;SDS011;50672;53.362;-6.240;2022-11-03T03:18:19;6.10;;;1.10;;
64335;SDS011;50672;53.362;-6.240;2022-11-03T03:23:35;5.23;;;1.77;;
64335;SDS011;50672;53.362;-6.240;2022-11-03T03:26:15;9.07;;;1.43;;
64335;SDS011;50672;53.362;-6.240;2022-11-03T03:28:50;6.03;;;1.27;;
64335;SDS011;50672;53.362;-6.240;2022-11-03T03:31:35;10.27;;;1.47;;
64335;SDS011;50672;53.362;-6.240;2022-11-03T03:34:04;8.83;;;1.00;;
64335;SDS011;50672;53.362;-6.240;2022-11-03T03:36:54;7.47;;;0.97;;
64335;SDS011;50672;53.362;-6.240;2022-11-03T03:39:24;9.00;;;1.80;;
64335;SDS011;50672;53.362;-6.240;2022-11-03T03:41:56;6.13;;;1.05;;
64335;SDS011;50672;53.362;-6.240;2022-11-03T03:44:25;5.03;;;1.40;;
64335;SDS011;50672;53.362;-6.240;2022-11-03T03:46:56;6.00;;;1.30;;
64335;SDS011;50672;53.362;-6.240;2022-11-03T03:49:26;6.07;;;1.23;;
64335;SDS011;50672;53.362;-6.240;2022-11-03T03:51:53;8.43;;;1.63;;
64335;SDS011;50672;53.362;-6.240;2022-11-03T03:54:20;6.57;;;1.10;;
64335;SDS011;50672;53.362;-6.240;2022-11-03T03:59:16;6.50;;;2.37;;
64335;SDS011;50672;53.362;-6.240;2022-11-03T04:01:43;6.30;;;2.13;;
64335;SDS011;50672;53.362;-6.240;2022-11-03T04:04:10;8.33;;;1.60;;
64335;SDS011;50672;53.362;-6.240;2022-11-03T04:06:37;11.90;;;2.17;;
64335;SDS011;50672;53.362;-6.240;2022-11-03T04:09:04;7.87;;;1.40;;
64335;SDS011;50672;53.362;-6.240;2022-11-03T04:11:31;6.53;;;2.00;;
64335;SDS011;50672;53.362;-6.240;2022-11-03T04:14:16;6.27;;;1.80;;
64335;SDS011;50672;53.362;-6.240;2022-11-03T04:17:01;14.37;;;3.47;;
64335;SDS011;50672;53.362;-6.240;2022-11-03T04:19:46;13.00;;;3.37;;
64335;SDS011;50672;53.362;-6.240;2022-11-03T04:22:32;8.17;;;2.13;;
64335;SDS011;50672;53.362;-6.240;2022-11-03T04:24:59;6.20;;;1.60;;
64335;SDS011;50672;53.362;-6.240;2022-11-03T04:30:16;6.97;;;1.10;;
64335;SDS011;50672;53.362;-6.240;2022-11-03T04:32:43;7.03;;;2.20;;
64335;SDS011;50672;53.362;-6.240;2022-11-03T04:35:18;8.03;;;1.77;;
64335;SDS011;50672;53.362;-6.240;2022-11-03T04:37:47;10.13;;;2.73;;
64335;SDS011;50672;53.362;-6.240;2022-11-03T04:40:19;6.03;;;1.60;;
64335;SDS011;50672;53.362;-6.240;2022-11-03T04:42:46;17.07;;;3.13;;
64335;SDS011;50672;53.362;-6.240;2022-11-03T04:45:29;7.43;;;1.30;;
64335;SDS011;50672;53.362;-6.240;2022-11-03T04:47:57;6.57;;;1.40;;
64335;SDS011;50672;53.362;-6.240;2022-11-03T04:50:26;6.53;;;1.77;;
64335;SDS011;50672;53.362;-6.240;2022-11-03T04:52:54;6.67;;;1.47;;
64335;SDS011;50672;53.362;-6.240;2022-11-03T04:55:22;11.43;;;2.57;;
64335;SDS011;50672;53.362;-6.240;2022-11-03T04:57:53;8.97;;;1.60;;
64335;SDS011;50672;53.362;-6.240;2022-11-03T05:00:22;14.30;;;1.80;;
64335;SDS011;50672;53.362;-6.240;2022-11-03T05:02:49;8.00;;;1.73;;
64335;SDS011;50672;53.362;-6.240;2022-11-03T05:05:22;16.67;;;3.17;;
64335;SDS011;50672;53.362;-6.240;2022-11-03T05:07:51;8.27;;;1.23;;
64335;SDS011;50672;53.362;-6.240;2022-11-03T05:10:30;14.27;;;2.73;;
64335;SDS011;50672;53.362;-6.240;2022-11-03T05:12:57;5.53;;;0.93;;
64335;SDS011;50672;53.362;-6.240;2022-11-03T05:17:52;7.90;;;2.10;;
64335;SDS011;50672;53.362;-6.240;2022-11-03T05:20:25;9.03;;;2.07;;
64335;SDS011;50672;53.362;-6.240;2022-11-03T05:23:03;9.63;;;2.38;;
64335;SDS011;50672;53.362;-6.240;2022-11-03T05:25:36;9.40;;;1.93;;
64335;SDS011;50672;53.362;-6.240;2022-11-03T05:28:19;7.00;;;1.40;;
64335;SDS011;50672;53.362;-6.240;2022-11-03T05:30:48;7.27;;;1.93;;
64335;SDS011;50672;53.362;-6.240;2022-11-03T05:33:33;8.03;;;1.63;;
64335;SDS011;50672;53.362;-6.240;2022-11-03T05:36:02;9.47;;;1.87;;
64335;SDS011;50672;53.362;-6.240;2022-11-03T05:38:36;7.20;;;2.40;;
64335;SDS011;50672;53.362;-6.240;2022-11-03T05:41:04;7.03;;;1.60;;
64335;SDS011;50672;53.362;-6.240;2022-11-03T05:43:40;11.07;;;2.20;;
64335;SDS011;50672;53.362;-6.240;2022-11-03T05:46:07;7.10;;;1.53;;
64335;SDS011;50672;53.362;-6.240;2022-11-03T05:48:38;6.07;;;1.10;;
64335;SDS011;50672;53.362;-6.240;2022-11-03T05:51:21;9.47;;;1.30;;
64335;SDS011;50672;53.362;-6.240;2022-11-03T05:53:52;3.63;;;1.00;;
64335;SDS011;50672;53.362;-6.240;2022-11-03T05:56:21;10.47;;;1.40;;
64335;SDS011;50672;53.362;-6.240;2022-11-03T05:58:50;6.93;;;1.50;;
64335;SDS011;50672;53.362;-6.240;2022-11-03T06:01:31;8.93;;;1.60;;
64335;SDS011;50672;53.362;-6.240;2022-11-03T06:04:47;8.63;;;1.50;;
64335;SDS011;50672;53.362;-6.240;2022-11-03T06:07:17;6.60;;;1.85;;
64335;SDS011;50672;53.362;-6.240;2022-11-03T06:09:45;8.97;;;2.53;;
64335;SDS011;50672;53.362;-6.240;2022-11-03T06:12:13;10.63;;;1.93;;
64335;SDS011;50672;53.362;-6.240;2022-11-03T06:14:44;6.05;;;1.20;;
64335;SDS011;50672;53.362;-6.240;2022-11-03T06:17:25;5.17;;;1.50;;
64335;SDS011;50672;53.362;-6.240;2022-11-03T06:19:53;9.87;;;1.30;;
64335;SDS011;50672;53.362;-6.240;2022-11-03T06:22:56;7.87;;;2.07;;
64335;SDS011;50672;53.362;-6.240;2022-11-03T06:25:28;4.43;;;1.70;;
64335;SDS011;50672;53.362;-6.240;2022-11-03T06:28:14;9.60;;;3.43;;
64335;SDS011;50672;53.362;-6.240;2022-11-03T06:30:48;4.63;;;1.37;;
64335;SDS011;50672;53.362;-6.240;2022-11-03T06:35:50;13.02;;;2.78;;
64335;SDS011;50672;53.362;-6.240;2022-11-03T06:38:20;9.57;;;1.47;;
64335;SDS011;50672;53.362;-6.240;2022-11-03T06:40:50;8.80;;;1.60;;
64335;SDS011;50672;53.362;-6.240;2022-11-03T06:43:19;6.60;;;1.57;;
64335;SDS011;50672;53.362;-6.240;2022-11-03T06:45:51;12.40;;;1.70;;
64335;SDS011;50672;53.362;-6.240;2022-11-03T06:48:26;12.13;;;1.57;;
64335;SDS011;50672;53.362;-6.240;2022-11-03T06:50:55;6.43;;;1.67;;
64335;SDS011;50672;53.362;-6.240;2022-11-03T06:53:24;5.83;;;1.97;;
64335;SDS011;50672;53.362;-6.240;2022-11-03T06:55:54;7.40;;;2.20;;
64335;SDS011;50672;53.362;-6.240;2022-11-03T07:00:54;6.70;;;1.77;;
64335;SDS011;50672;53.362;-6.240;2022-11-03T07:03:31;7.10;;;2.17;;
64335;SDS011;50672;53.362;-6.240;2022-11-03T07:08:37;3.13;;;1.10;;
64335;SDS011;50672;53.362;-6.240;2022-11-03T07:11:22;9.60;;;2.03;;
64335;SDS011;50672;53.362;-6.240;2022-11-03T07:13:57;4.83;;;1.20;;
64335;SDS011;50672;53.362;-6.240;2022-11-03T07:16:36;2.87;;;1.00;;
64335;SDS011;50672;53.362;-6.240;2022-11-03T07:19:12;8.60;;;1.37;;
64335;SDS011;50672;53.362;-6.240;2022-11-03T07:21:52;5.60;;;1.33;;
64335;SDS011;50672;53.362;-6.240;2022-11-03T07:24:26;4.65;;;1.05;;
64335;SDS011;50672;53.362;-6.240;2022-11-03T07:29:32;5.77;;;1.23;;
64335;SDS011;50672;53.362;-6.240;2022-11-03T07:31:59;6.03;;;1.30;;
64335;SDS011;50672;53.362;-6.240;2022-11-03T07:34:26;6.10;;;1.53;;
64335;SDS011;50672;53.362;-6.240;2022-11-03T07:36:58;7.50;;;1.42;;
64335;SDS011;50672;53.362;-6.240;2022-11-03T07:39:33;6.10;;;2.37;;
64335;SDS011;50672;53.362;-6.240;2022-11-03T07:42:14;7.27;;;1.43;;
64335;SDS011;50672;53.362;-6.240;2022-11-03T07:44:45;7.00;;;1.60;;
64335;SDS011;50672;53.362;-6.240;2022-11-03T07:47:13;8.07;;;2.03;;
64335;SDS011;50672;53.362;-6.240;2022-11-03T07:49:47;8.43;;;1.90;;
64335;SDS011;50672;53.362;-6.240;2022-11-03T07:52:14;3.80;;;1.93;;
64335;SDS011;50672;53.362;-6.240;2022-11-03T07:54:44;8.97;;;2.43;;
64335;SDS011;50672;53.362;-6.240;2022-11-03T07:57:18;7.27;;;1.93;;
64335;SDS011;50672;53.362;-6.240;2022-11-03T07:59:55;5.27;;;1.40;;
64335;SDS011;50672;53.362;-6.240;2022-11-03T08:02:33;7.97;;;1.73;;
64335;SDS011;50672;53.362;-6.240;2022-11-03T08:05:08;8.60;;;1.77;;
64335;SDS011;50672;53.362;-6.240;2022-11-03T08:07:35;9.17;;;1.90;;
64335;SDS011;50672;53.362;-6.240;2022-11-03T08:10:02;5.73;;;1.93;;
64335;SDS011;50672;53.362;-6.240;2022-11-03T08:12:29;6.43;;;1.90;;
64335;SDS011;50672;53.362;-6.240;2022-11-03T08:14:55;10.47;;;2.13;;
64335;SDS011;50672;53.362;-6.240;2022-11-03T08:17:22;7.17;;;1.80;;
64335;SDS011;50672;53.362;-6.240;2022-11-03T08:19:49;6.57;;;1.40;;
64335;SDS011;50672;53.362;-6.240;2022-11-03T08:22:16;7.70;;;1.87;;
64335;SDS011;50672;53.362;-6.240;2022-11-03T08:24:42;5.23;;;1.27;;
64335;SDS011;50672;53.362;-6.240;2022-11-03T08:27:09;4.53;;;0.80;;
64335;SDS011;50672;53.362;-6.240;2022-11-03T08:29:36;4.53;;;1.27;;
64335;SDS011;50672;53.362;-6.240;2022-11-03T08:32:03;6.07;;;1.63;;
64335;SDS011;50672;53.362;-6.240;2022-11-03T08:34:29;8.80;;;1.83;;
64335;SDS011;50672;53.362;-6.240;2022-11-03T08:36:56;4.60;;;1.37;;
64335;SDS011;50672;53.362;-6.240;2022-11-03T08:39:23;5.30;;;1.13;;
64335;SDS011;50672;53.362;-6.240;2022-11-03T08:41:50;5.47;;;1.83;;
64335;SDS011;50672;53.362;-6.240;2022-11-03T08:44:17;7.20;;;1.40;;
64335;SDS011;50672;53.362;-6.240;2022-11-03T08:46:43;7.27;;;1.70;;
64335;SDS011;50672;53.362;-6.240;2022-11-03T08:49:10;5.67;;;1.47;;
64335;SDS011;50672;53.362;-6.240;2022-11-03T08:51:37;4.57;;;1.20;;
64335;SDS011;50672;53.362;-6.240;2022-11-03T08:54:09;6.90;;;1.10;;
64335;SDS011;50672;53.362;-6.240;2022-11-03T08:56:36;7.70;;;1.60;;
64335;SDS011;50672;53.362;-6.240;2022-11-03T08:59:03;8.07;;;2.37;;
64335;SDS011;50672;53.362;-6.240;2022-11-03T09:01:29;6.20;;;1.90;;
64335;SDS011;50672;53.362;-6.240;2022-11-03T09:03:56;7.10;;;1.97;;
64335;SDS011;50672;53.362;-6.240;2022-11-03T09:06:23;7.97;;;1.10;;
64335;SDS011;50672;53.362;-6.240;2022-11-03T09:08:50;6.73;;;1.37;;
64335;SDS011;50672;53.362;-6.240;2022-11-03T09:11:37;9.33;;;1.70;;
64335;SDS011;50672;53.362;-6.240;2022-11-03T09:14:04;8.10;;;1.73;;
64335;SDS011;50672;53.362;-6.240;2022-11-03T09:16:30;9.30;;;1.40;;
64335;SDS011;50672;53.362;-6.240;2022-11-03T09:18:57;9.77;;;1.43;;
64335;SDS011;50672;53.362;-6.240;2022-11-03T09:21:24;26.33;;;2.40;;
64335;SDS011;50672;53.362;-6.240;2022-11-03T09:23:51;8.00;;;1.23;;
64335;SDS011;50672;53.362;-6.240;2022-11-03T09:26:18;7.00;;;1.07;;
64335;SDS011;50672;53.362;-6.240;2022-11-03T09:28:45;4.53;;;1.00;;
64335;SDS011;50672;53.362;-6.240;2022-11-03T09:31:14;4.20;;;1.00;;
64335;SDS011;50672;53.362;-6.240;2022-11-03T09:33:41;7.90;;;1.53;;
64335;SDS011;50672;53.362;-6.240;2022-11-03T09:36:08;9.20;;;1.30;;
64335;SDS011;50672;53.362;-6.240;2022-11-03T09:38:35;14.27;;;1.93;;
64335;SDS011;50672;53.362;-6.240;2022-11-03T09:41:02;5.87;;;1.13;;
64335;SDS011;50672;53.362;-6.240;2022-11-03T09:43:50;5.03;;;1.40;;
64335;SDS011;50672;53.362;-6.240;2022-11-03T09:46:17;9.40;;;1.60;;
64335;SDS011;50672;53.362;-6.240;2022-11-03T09:48:44;5.83;;;1.80;;
64335;SDS011;50672;53.362;-6.240;2022-11-03T09:51:14;7.10;;;1.70;;
64335;SDS011;50672;53.362;-6.240;2022-11-03T09:53:45;11.87;;;1.20;;
64335;SDS011;50672;53.362;-6.240;2022-11-03T09:56:13;4.50;;;1.20;;
64335;SDS011;50672;53.362;-6.240;2022-11-03T09:58:44;8.40;;;1.87;;
64335;SDS011;50672;53.362;-6.240;2022-11-03T10:01:19;6.63;;;1.60;;
64335;SDS011;50672;53.362;-6.240;2022-11-03T10:03:46;9.63;;;1.70;;
64335;SDS011;50672;53.362;-6.240;2022-11-03T10:06:12;4.60;;;1.73;;
64335;SDS011;50672;53.362;-6.240;2022-11-03T10:08:42;6.60;;;1.50;;
64335;SDS011;50672;53.362;-6.240;2022-11-03T10:11:11;12.63;;;2.67;;
64335;SDS011;50672;53.362;-6.240;2022-11-03T10:13:40;7.60;;;1.83;;
64335;SDS011;50672;53.362;-6.240;2022-11-03T10:16:10;5.47;;;1.00;;
64335;SDS011;50672;53.362;-6.240;2022-11-03T10:18:40;4.47;;;1.63;;
64335;SDS011;50672;53.362;-6.240;2022-11-03T10:21:14;12.63;;;2.23;;
64335;SDS011;50672;53.362;-6.240;2022-11-03T10:23:42;10.27;;;2.63;;
64335;SDS011;50672;53.362;-6.240;2022-11-03T10:26:11;6.33;;;1.37;;
64335;SDS011;50672;53.362;-6.240;2022-11-03T10:28:38;3.77;;;1.30;;
64335;SDS011;50672;53.362;-6.240;2022-11-03T10:31:07;6.80;;;1.83;;
64335;SDS011;50672;53.362;-6.240;2022-11-03T10:33:54;8.47;;;1.27;;
64335;SDS011;50672;53.362;-6.240;2022-11-03T10:36:25;9.00;;;1.00;;
64335;SDS011;50672;53.362;-6.240;2022-11-03T10:38:53;7.50;;;1.53;;
64335;SDS011;50672;53.362;-6.240;2022-11-03T10:41:21;6.07;;;1.70;;
64335;SDS011;50672;53.362;-6.240;2022-11-03T10:46:37;6.33;;;1.30;;
64335;SDS011;50672;53.362;-6.240;2022-11-03T10:49:20;3.57;;;0.87;;
64335;SDS011;50672;53.362;-6.240;2022-11-03T10:51:52;6.33;;;1.60;;
64335;SDS011;50672;53.362;-6.240;2022-11-03T10:54:23;6.37;;;1.07;;
64335;SDS011;50672;53.362;-6.240;2022-11-03T10:56:50;6.73;;;1.10;;
64335;SDS011;50672;53.362;-6.240;2022-11-03T10:59:19;19.53;;;2.50;;
64335;SDS011;50672;53.362;-6.240;2022-11-03T11:01:47;11.03;;;2.10;;
64335;SDS011;50672;53.362;-6.240;2022-11-03T11:04:15;7.83;;;1.67;;
64335;SDS011;50672;53.362;-6.240;2022-11-03T11:06:43;4.43;;;1.20;;
64335;SDS011;50672;53.362;-6.240;2022-11-03T11:09:12;4.80;;;1.20;;
64335;SDS011;50672;53.362;-6.240;2022-11-03T11:11:58;6.83;;;1.30;;
64335;SDS011;50672;53.362;-6.240;2022-11-03T11:14:33;5.20;;;0.90;;
64335;SDS011;50672;53.362;-6.240;2022-11-03T11:17:02;4.20;;;1.33;;
64335;SDS011;50672;53.362;-6.240;2022-11-03T11:19:32;5.07;;;1.10;;
64335;SDS011;50672;53.362;-6.240;2022-11-03T11:22:35;7.57;;;1.13;;
64335;SDS011;50672;53.362;-6.240;2022-11-03T11:25:02;7.53;;;1.60;;
64335;SDS011;50672;53.362;-6.240;2022-11-03T11:30:05;3.95;;;1.40;;
64335;SDS011;50672;53.362;-6.240;2022-11-03T11:32:59;4.50;;;1.20;;
64335;SDS011;50672;53.362;-6.240;2022-11-03T11:41:09;6.90;;;1.23;;
64335;SDS011;50672;53.362;-6.240;2022-11-03T11:43:35;6.50;;;1.53;;
64335;SDS011;50672;53.362;-6.240;2022-11-03T11:51:41;6.53;;;1.13;;
64335;SDS011;50672;53.362;-6.240;2022-11-03T11:54:16;7.57;;;0.90;;
64335;SDS011;50672;53.362;-6.240;2022-11-03T11:56:46;3.53;;;0.87;;
64335;SDS011;50672;53.362;-6.240;2022-11-03T11:59:23;3.67;;;1.10;;
64335;SDS011;50672;53.362;-6.240;2022-11-03T12:01:54;8.70;;;1.13;;
64335;SDS011;50672;53.362;-6.240;2022-11-03T12:04:24;6.57;;;1.63;;
64335;SDS011;50672;53.362;-6.240;2022-11-03T12:06:54;5.40;;;1.40;;
64335;SDS011;50672;53.362;-6.240;2022-11-03T12:09:22;4.63;;;1.00;;
64335;SDS011;50672;53.362;-6.240;2022-11-03T12:11:56;4.80;;;1.00;;
64335;SDS011;50672;53.362;-6.240;2022-11-03T12:16:57;7.23;;;1.37;;
64335;SDS011;50672;53.362;-6.240;2022-11-03T12:24:50;8.20;;;1.80;;
64335;SDS011;50672;53.362;-6.240;2022-11-03T12:29:51;5.77;;;1.73;;
64335;SDS011;50672;53.362;-6.240;2022-11-03T12:32:19;6.77;;;1.47;;
64335;SDS011;50672;53.362;-6.240;2022-11-03T12:35:05;3.88;;;1.27;;
64335;SDS011;50672;53.362;-6.240;2022-11-03T12:37:34;6.60;;;1.00;;
64335;SDS011;50672;53.362;-6.240;2022-11-03T12:40:01;5.63;;;1.83;;
64335;SDS011;50672;53.362;-6.240;2022-11-03T12:42:29;4.40;;;1.33;;
64335;SDS011;50672;53.362;-6.240;2022-11-03T12:44:55;10.23;;;1.30;;
64335;SDS011;50672;53.362;-6.240;2022-11-03T12:47:22;6.17;;;1.37;;
64335;SDS011;50672;53.362;-6.240;2022-11-03T12:49:49;5.00;;;1.13;;
64335;SDS011;50672;53.362;-6.240;2022-11-03T12:52:16;9.50;;;3.00;;
64335;SDS011;50672;53.362;-6.240;2022-11-03T12:54:43;12.13;;;2.23;;
64335;SDS011;50672;53.362;-6.240;2022-11-03T12:57:10;10.07;;;1.70;;
64335;SDS011;50672;53.362;-6.240;2022-11-03T12:59:36;5.27;;;1.57;;
64335;SDS011;50672;53.362;-6.240;2022-11-03T13:02:03;6.27;;;1.30;;
64335;SDS011;50672;53.362;-6.240;2022-11-03T13:04:30;13.90;;;2.23;;
64335;SDS011;50672;53.362;-6.240;2022-11-03T13:06:57;5.33;;;0.90;;
64335;SDS011;50672;53.362;-6.240;2022-11-03T13:09:24;6.73;;;1.53;;
64335;SDS011;50672;53.362;-6.240;2022-11-03T13:11:51;8.50;;;1.90;;
64335;SDS011;50672;53.362;-6.240;2022-11-03T13:14:36;8.40;;;2.23;;
64335;SDS011;50672;53.362;-6.240;2022-11-03T13:17:03;9.10;;;1.50;;
64335;SDS011;50672;53.362;-6.240;2022-11-03T13:19:29;8.97;;;1.00;;
64335;SDS011;50672;53.362;-6.240;2022-11-03T13:21:56;10.13;;;2.10;;
64335;SDS011;50672;53.362;-6.240;2022-11-03T13:24:23;6.13;;;1.57;;
64335;SDS011;50672;53.362;-6.240;2022-11-03T13:26:50;6.90;;;1.80;;
64335;SDS011;50672;53.362;-6.240;2022-11-03T13:29:17;8.17;;;2.10;;
64335;SDS011;50672;53.362;-6.240;2022-11-03T13:31:43;9.53;;;2.47;;
64335;SDS011;50672;53.362;-6.240;2022-11-03T13:34:10;7.80;;;1.50;;
64335;SDS011;50672;53.362;-6.240;2022-11-03T13:36:37;6.37;;;1.30;;
64335;SDS011;50672;53.362;-6.240;2022-11-03T13:39:04;6.03;;;1.43;;
64335;SDS011;50672;53.362;-6.240;2022-11-03T13:41:31;4.77;;;1.20;;
64335;SDS011;50672;53.362;-6.240;2022-11-03T13:43:58;7.10;;;1.20;;
64335;SDS011;50672;53.362;-6.240;2022-11-03T13:46:25;4.87;;;1.43;;
64335;SDS011;50672;53.362;-6.240;2022-11-03T13:48:51;4.80;;;1.27;;
64335;SDS011;50672;53.362;-6.240;2022-11-03T13:51:38;6.60;;;0.87;;
64335;SDS011;50672;53.362;-6.240;2022-11-03T13:54:05;5.27;;;1.00;;
64335;SDS011;50672;53.362;-6.240;2022-11-03T13:56:52;4.93;;;1.37;;
64335;SDS011;50672;53.362;-6.240;2022-11-03T13:59:38;5.70;;;1.13;;
64335;SDS011;50672;53.362;-6.240;2022-11-03T14:02:05;6.10;;;2.13;;
64335;SDS011;50672;53.362;-6.240;2022-11-03T14:04:52;6.60;;;1.43;;
64335;SDS011;50672;53.362;-6.240;2022-11-03T14:07:19;7.20;;;1.30;;
64335;SDS011;50672;53.362;-6.240;2022-11-03T14:09:46;6.57;;;2.07;;
64335;SDS011;50672;53.362;-6.240;2022-11-03T14:12:12;4.00;;;1.00;;
64335;SDS011;50672;53.362;-6.240;2022-11-03T14:14:58;4.60;;;0.77;;
64335;SDS011;50672;53.362;-6.240;2022-11-03T14:17:25;7.30;;;1.10;;
64335;SDS011;50672;53.362;-6.240;2022-11-03T14:19:53;4.00;;;1.17;;
64335;SDS011;50672;53.362;-6.240;2022-11-03T14:22:29;4.23;;;1.37;;
64335;SDS011;50672;53.362;-6.240;2022-11-03T14:24:55;4.60;;;0.80;;
64335;SDS011;50672;53.362;-6.240;2022-11-03T14:27:22;6.67;;;1.53;;
64335;SDS011;50672;53.362;-6.240;2022-11-03T14:29:49;8.30;;;2.07;;
64335;SDS011;50672;53.362;-6.240;2022-11-03T14:32:16;8.27;;;1.33;;
64335;SDS011;50672;53.362;-6.240;2022-11-03T14:34:44;6.93;;;1.60;;
64335;SDS011;50672;53.362;-6.240;2022-11-03T14:37:11;4.53;;;1.83;;
64335;SDS011;50672;53.362;-6.240;2022-11-03T14:39:38;6.53;;;1.30;;
64335;SDS011;50672;53.362;-6.240;2022-11-03T14:42:07;6.57;;;1.90;;
64335;SDS011;50672;53.362;-6.240;2022-11-03T14:44:41;13.33;;;5.90;;
64335;SDS011;50672;53.362;-6.240;2022-11-03T14:47:11;11.50;;;4.63;;
64335;SDS011;50672;53.362;-6.240;2022-11-03T14:49:39;19.60;;;10.03;;
64335;SDS011;50672;53.362;-6.240;2022-11-03T14:52:06;7.97;;;2.50;;
64335;SDS011;50672;53.362;-6.240;2022-11-03T14:54:33;7.67;;;2.20;;
64335;SDS011;50672;53.362;-6.240;2022-11-03T14:57:01;14.27;;;5.87;;
64335;SDS011;50672;53.362;-6.240;2022-11-03T14:59:29;57.03;;;25.80;;
64335;SDS011;50672;53.362;-6.240;2022-11-03T15:01:56;32.27;;;14.13;;
64335;SDS011;50672;53.362;-6.240;2022-11-03T15:04:24;37.67;;;17.07;;
64335;SDS011;50672;53.362;-6.240;2022-11-03T15:06:51;36.47;;;16.33;;
64335;SDS011;50672;53.362;-6.240;2022-11-03T15:09:18;35.53;;;17.90;;
64335;SDS011;50672;53.362;-6.240;2022-11-03T15:11:45;65.67;;;32.77;;
64335;SDS011;50672;53.362;-6.240;2022-11-03T15:14:12;74.50;;;38.10;;
64335;SDS011;50672;53.362;-6.240;2022-11-03T15:16:39;28.13;;;14.00;;
64335;SDS011;50672;53.362;-6.240;2022-11-03T15:19:06;30.37;;;15.50;;
64335;SDS011;50672;53.362;-6.240;2022-11-03T15:21:34;15.67;;;6.30;;
64335;SDS011;50672;53.362;-6.240;2022-11-03T15:24:01;6.10;;;2.40;;
64335;SDS011;50672;53.362;-6.240;2022-11-03T15:26:48;9.37;;;4.17;;
64335;SDS011;50672;53.362;-6.240;2022-11-03T15:29:15;10.43;;;3.63;;
64335;SDS011;50672;53.362;-6.240;2022-11-03T15:31:42;8.90;;;3.30;;
64335;SDS011;50672;53.362;-6.240;2022-11-03T15:34:13;4.80;;;1.90;;
64335;SDS011;50672;53.362;-6.240;2022-11-03T15:36:41;4.10;;;1.00;;
64335;SDS011;50672;53.362;-6.240;2022-11-03T15:39:07;2.37;;;0.60;;
64335;SDS011;50672;53.362;-6.240;2022-11-03T15:41:34;2.83;;;0.83;;
64335;SDS011;50672;53.362;-6.240;2022-11-03T15:44:01;2.70;;;0.60;;
64335;SDS011;50672;53.362;-6.240;2022-11-03T15:46:27;2.20;;;0.60;;
64335;SDS011;50672;53.362;-6.240;2022-11-03T15:48:54;3.07;;;0.63;;
64335;SDS011;50672;53.362;-6.240;2022-11-03T15:51:23;2.93;;;0.63;;
64335;SDS011;50672;53.362;-6.240;2022-11-03T15:53:50;2.57;;;0.70;;
64335;SDS011;50672;53.362;-6.240;2022-11-03T15:56:23;3.03;;;0.53;;
64335;SDS011;50672;53.362;-6.240;2022-11-03T15:58:51;2.83;;;1.00;;
64335;SDS011;50672;53.362;-6.240;2022-11-03T16:01:18;2.97;;;0.50;;